sensor_id;sensor_type;location;lat;lon;timestamp;pressure;altitude;pressure_sealevel;temperature;humidity
82668;BME280;72691;51.374;-0.176;2023-10-09T00:01:14;101897.14;;;15.27;59.03
82668;BME280;72691;51.374;-0.176;2023-10-09T00:03:40;101892.18;;;15.27;57.79
82668;BME280;72691;51.374;-0.176;2023-10-09T00:06:05;101892.77;;;14.55;59.14
82668;BME280;72691;51.374;-0.176;2023-10-09T00:08:30;101891.53;;;15.41;58.33
82668;BME280;72691;51.374;-0.176;2023-10-09T00:10:57;101876.05;;;16.56;55.07
82668;BME280;72691;51.374;-0.176;2023-10-09T00:13:26;101876.62;;;16.51;54.39
82668;BME280;72691;51.374;-0.176;2023-10-09T00:15:46;101871.87;;;18.46;50.46
82668;BME280;72691;51.374;-0.176;2023-10-09T00:18:11;101875.64;;;18.66;49.42
82668;BME280;72691;51.374;-0.176;2023-10-09T00:20:36;101873.35;;;17.85;50.75
82668;BME280;72691;51.374;-0.176;2023-10-09T00:23:02;101873.77;;;19.06;47.81
82668;BME280;72691;51.374;-0.176;2023-10-09T00:25:28;101875.86;;;18.06;49.93
82668;BME280;72691;51.374;-0.176;2023-10-09T00:27:52;101879.26;;;17.60;50.83
82668;BME280;72691;51.374;-0.176;2023-10-09T00:30:18;101881.73;;;16.43;54.16
82668;BME280;72691;51.374;-0.176;2023-10-09T00:32:44;101881.95;;;16.77;52.51
82668;BME280;72691;51.374;-0.176;2023-10-09T00:35:08;101883.29;;;16.11;54.07
82668;BME280;72691;51.374;-0.176;2023-10-09T00:37:34;101885.62;;;15.82;54.89
82668;BME280;72691;51.374;-0.176;2023-10-09T00:40:00;101879.83;;;17.06;52.26
82668;BME280;72691;51.374;-0.176;2023-10-09T00:42:25;101874.54;;;17.10;51.26
82668;BME280;72691;51.374;-0.176;2023-10-09T00:44:50;101870.38;;;16.47;53.20
82668;BME280;72691;51.374;-0.176;2023-10-09T00:47:16;101868.83;;;17.12;51.44
82668;BME280;72691;51.374;-0.176;2023-10-09T00:49:41;101866.57;;;16.35;53.22
82668;BME280;72691;51.374;-0.176;2023-10-09T00:52:06;101862.65;;;15.76;53.95
82668;BME280;72691;51.374;-0.176;2023-10-09T00:54:32;101857.21;;;17.59;50.40
82668;BME280;72691;51.374;-0.176;2023-10-09T00:56:57;101858.34;;;16.41;52.28
82668;BME280;72691;51.374;-0.176;2023-10-09T00:59:23;101857.99;;;16.83;51.42
82668;BME280;72691;51.374;-0.176;2023-10-09T01:01:47;101862.63;;;16.69;51.71
82668;BME280;72691;51.374;-0.176;2023-10-09T01:04:13;101862.09;;;16.49;51.76
82668;BME280;72691;51.374;-0.176;2023-10-09T01:06:38;101865.04;;;15.46;53.39
82668;BME280;72691;51.374;-0.176;2023-10-09T01:09:03;101865.84;;;16.06;51.34
82668;BME280;72691;51.374;-0.176;2023-10-09T01:11:28;101872.92;;;16.38;51.97
82668;BME280;72691;51.374;-0.176;2023-10-09T01:13:54;101873.15;;;17.34;49.18
82668;BME280;72691;51.374;-0.176;2023-10-09T01:16:19;101868.06;;;17.85;47.67
82668;BME280;72691;51.374;-0.176;2023-10-09T01:18:44;101867.92;;;16.96;49.21
82668;BME280;72691;51.374;-0.176;2023-10-09T01:21:09;101870.42;;;17.36;48.49
82668;BME280;72691;51.374;-0.176;2023-10-09T01:23:34;101867.45;;;16.91;49.19
82668;BME280;72691;51.374;-0.176;2023-10-09T01:26:00;101870.04;;;17.47;48.39
82668;BME280;72691;51.374;-0.176;2023-10-09T01:28:25;101878.25;;;16.32;51.16
82668;BME280;72691;51.374;-0.176;2023-10-09T01:30:51;101873.08;;;16.65;49.68
82668;BME280;72691;51.374;-0.176;2023-10-09T01:33:16;101870.52;;;16.33;50.86
82668;BME280;72691;51.374;-0.176;2023-10-09T01:35:42;101867.74;;;16.64;50.79
82668;BME280;72691;51.374;-0.176;2023-10-09T01:38:07;101866.97;;;17.27;48.60
82668;BME280;72691;51.374;-0.176;2023-10-09T01:40:33;101870.40;;;15.94;51.28
82668;BME280;72691;51.374;-0.176;2023-10-09T01:42:58;101867.05;;;17.72;48.48
82668;BME280;72691;51.374;-0.176;2023-10-09T01:45:23;101861.55;;;17.11;49.63
82668;BME280;72691;51.374;-0.176;2023-10-09T01:47:48;101861.48;;;16.12;51.81
82668;BME280;72691;51.374;-0.176;2023-10-09T01:50:14;101862.80;;;15.66;53.11
82668;BME280;72691;51.374;-0.176;2023-10-09T01:52:39;101860.59;;;16.08;51.49
82668;BME280;72691;51.374;-0.176;2023-10-09T01:55:05;101863.82;;;15.66;52.48
82668;BME280;72691;51.374;-0.176;2023-10-09T01:57:30;101857.83;;;16.88;49.87
82668;BME280;72691;51.374;-0.176;2023-10-09T01:59:55;101857.65;;;16.81;50.53
82668;BME280;72691;51.374;-0.176;2023-10-09T02:02:21;101853.12;;;16.91;49.80
82668;BME280;72691;51.374;-0.176;2023-10-09T02:04:45;101854.99;;;15.49;53.23
82668;BME280;72691;51.374;-0.176;2023-10-09T02:07:11;101849.56;;;16.55;50.99
82668;BME280;72691;51.374;-0.176;2023-10-09T02:09:36;101851.02;;;15.70;53.47
82668;BME280;72691;51.374;-0.176;2023-10-09T02:12:01;101839.74;;;16.22;52.08
82668;BME280;72691;51.374;-0.176;2023-10-09T02:14:28;101841.62;;;15.67;53.38
82668;BME280;72691;51.374;-0.176;2023-10-09T02:16:51;101837.89;;;16.52;52.27
82668;BME280;72691;51.374;-0.176;2023-10-09T02:19:17;101832.75;;;15.73;52.78
82668;BME280;72691;51.374;-0.176;2023-10-09T02:21:42;101830.37;;;15.49;53.89
82668;BME280;72691;51.374;-0.176;2023-10-09T02:24:08;101828.40;;;14.72;55.24
82668;BME280;72691;51.374;-0.176;2023-10-09T02:26:33;101829.92;;;14.33;56.28
82668;BME280;72691;51.374;-0.176;2023-10-09T02:28:59;101824.29;;;16.00;54.05
82668;BME280;72691;51.374;-0.176;2023-10-09T02:31:24;101820.94;;;16.10;53.83
82668;BME280;72691;51.374;-0.176;2023-10-09T02:33:49;101814.88;;;15.99;53.56
82668;BME280;72691;51.374;-0.176;2023-10-09T02:36:14;101811.31;;;16.10;52.73
82668;BME280;72691;51.374;-0.176;2023-10-09T02:38:40;101810.69;;;15.37;54.76
82668;BME280;72691;51.374;-0.176;2023-10-09T02:41:05;101816.56;;;15.25;55.38
82668;BME280;72691;51.374;-0.176;2023-10-09T02:43:32;101817.14;;;15.14;54.82
82668;BME280;72691;51.374;-0.176;2023-10-09T02:45:56;101814.31;;;15.32;55.28
82668;BME280;72691;51.374;-0.176;2023-10-09T02:48:21;101808.53;;;15.28;54.38
82668;BME280;72691;51.374;-0.176;2023-10-09T02:50:47;101805.40;;;15.75;53.42
82668;BME280;72691;51.374;-0.176;2023-10-09T02:53:12;101812.79;;;15.26;54.79
82668;BME280;72691;51.374;-0.176;2023-10-09T02:55:38;101808.76;;;15.29;55.32
82668;BME280;72691;51.374;-0.176;2023-10-09T02:58:03;101802.33;;;14.82;55.35
82668;BME280;72691;51.374;-0.176;2023-10-09T03:00:28;101800.46;;;14.78;55.54
82668;BME280;72691;51.374;-0.176;2023-10-09T03:02:54;101796.18;;;15.65;54.51
82668;BME280;72691;51.374;-0.176;2023-10-09T03:05:19;101794.30;;;15.82;53.34
82668;BME280;72691;51.374;-0.176;2023-10-09T03:07:44;101793.68;;;16.01;52.71
82668;BME280;72691;51.374;-0.176;2023-10-09T03:10:10;101794.07;;;14.65;56.30
82668;BME280;72691;51.374;-0.176;2023-10-09T03:12:35;101791.84;;;15.13;55.46
82668;BME280;72691;51.374;-0.176;2023-10-09T03:15:00;101785.01;;;15.00;55.09
82668;BME280;72691;51.374;-0.176;2023-10-09T03:17:26;101787.39;;;14.82;56.74
82668;BME280;72691;51.374;-0.176;2023-10-09T03:19:51;101790.40;;;15.23;55.47
82668;BME280;72691;51.374;-0.176;2023-10-09T03:22:16;101783.90;;;15.50;54.99
82668;BME280;72691;51.374;-0.176;2023-10-09T03:24:42;101784.17;;;14.43;56.97
82668;BME280;72691;51.374;-0.176;2023-10-09T03:27:07;101782.25;;;14.48;57.55
82668;BME280;72691;51.374;-0.176;2023-10-09T03:29:32;101787.00;;;13.91;58.17
82668;BME280;72691;51.374;-0.176;2023-10-09T03:31:57;101782.37;;;14.42;56.45
82668;BME280;72691;51.374;-0.176;2023-10-09T03:34:23;101786.15;;;14.31;56.85
82668;BME280;72691;51.374;-0.176;2023-10-09T03:36:48;101785.44;;;14.04;56.74
82668;BME280;72691;51.374;-0.176;2023-10-09T03:39:14;101790.20;;;14.81;55.48
82668;BME280;72691;51.374;-0.176;2023-10-09T03:41:39;101791.65;;;14.84;55.15
82668;BME280;72691;51.374;-0.176;2023-10-09T03:44:04;101796.95;;;14.85;55.38
82668;BME280;72691;51.374;-0.176;2023-10-09T03:46:30;101789.19;;;14.73;55.74
82668;BME280;72691;51.374;-0.176;2023-10-09T03:48:55;101785.29;;;13.53;58.57
82668;BME280;72691;51.374;-0.176;2023-10-09T03:51:20;101788.82;;;14.40;56.39
82668;BME280;72691;51.374;-0.176;2023-10-09T03:53:46;101791.53;;;14.65;56.27
82668;BME280;72691;51.374;-0.176;2023-10-09T03:56:11;101786.28;;;15.01;54.86
82668;BME280;72691;51.374;-0.176;2023-10-09T03:58:36;101785.39;;;13.90;57.46
82668;BME280;72691;51.374;-0.176;2023-10-09T04:01:07;101783.37;;;14.86;55.80
82668;BME280;72691;51.374;-0.176;2023-10-09T04:03:27;101780.70;;;14.91;54.77
82668;BME280;72691;51.374;-0.176;2023-10-09T04:05:52;101781.83;;;14.78;55.11
82668;BME280;72691;51.374;-0.176;2023-10-09T04:08:17;101780.42;;;14.92;55.07
82668;BME280;72691;51.374;-0.176;2023-10-09T04:10:43;101780.84;;;14.15;55.61
82668;BME280;72691;51.374;-0.176;2023-10-09T04:13:08;101776.95;;;15.21;54.23
82668;BME280;72691;51.374;-0.176;2023-10-09T04:15:33;101784.76;;;14.58;55.34
82668;BME280;72691;51.374;-0.176;2023-10-09T04:17:59;101790.56;;;14.69;54.64
82668;BME280;72691;51.374;-0.176;2023-10-09T04:20:24;101792.28;;;15.46;53.00
82668;BME280;72691;51.374;-0.176;2023-10-09T04:22:49;101797.00;;;15.24;52.84
82668;BME280;72691;51.374;-0.176;2023-10-09T04:25:15;101793.23;;;15.09;53.30
82668;BME280;72691;51.374;-0.176;2023-10-09T04:27:40;101795.85;;;14.29;54.03
82668;BME280;72691;51.374;-0.176;2023-10-09T04:30:08;101797.00;;;14.80;53.15
82668;BME280;72691;51.374;-0.176;2023-10-09T04:32:31;101804.13;;;15.38;52.81
82668;BME280;72691;51.374;-0.176;2023-10-09T04:34:56;101806.08;;;15.14;51.88
82668;BME280;72691;51.374;-0.176;2023-10-09T04:37:22;101802.10;;;15.38;51.84
82668;BME280;72691;51.374;-0.176;2023-10-09T04:39:48;101796.26;;;14.27;53.95
82668;BME280;72691;51.374;-0.176;2023-10-09T04:42:14;101800.68;;;14.57;53.01
82668;BME280;72691;51.374;-0.176;2023-10-09T04:44:38;101803.75;;;15.22;51.64
82668;BME280;72691;51.374;-0.176;2023-10-09T04:47:04;101806.61;;;15.29;51.94
82668;BME280;72691;51.374;-0.176;2023-10-09T04:49:29;101804.52;;;14.93;52.28
82668;BME280;72691;51.374;-0.176;2023-10-09T04:51:54;101800.02;;;15.26;51.09
82668;BME280;72691;51.374;-0.176;2023-10-09T04:54:20;101799.92;;;14.71;52.50
82668;BME280;72691;51.374;-0.176;2023-10-09T04:56:45;101789.38;;;14.97;52.01
82668;BME280;72691;51.374;-0.176;2023-10-09T04:59:10;101788.37;;;14.92;52.14
82668;BME280;72691;51.374;-0.176;2023-10-09T05:01:36;101789.19;;;14.32;52.79
82668;BME280;72691;51.374;-0.176;2023-10-09T05:04:02;101787.23;;;14.11;53.79
82668;BME280;72691;51.374;-0.176;2023-10-09T05:06:27;101790.49;;;14.16;53.43
82668;BME280;72691;51.374;-0.176;2023-10-09T05:08:52;101795.68;;;14.04;53.20
82668;BME280;72691;51.374;-0.176;2023-10-09T05:11:17;101790.90;;;15.83;49.63
82668;BME280;72691;51.374;-0.176;2023-10-09T05:13:43;101786.93;;;15.85;48.67
82668;BME280;72691;51.374;-0.176;2023-10-09T05:16:10;101787.31;;;15.94;48.10
82668;BME280;72691;51.374;-0.176;2023-10-09T05:18:34;101788.65;;;16.20;48.10
82668;BME280;72691;51.374;-0.176;2023-10-09T05:20:59;101798.90;;;15.80;48.41
82668;BME280;72691;51.374;-0.176;2023-10-09T05:23:24;101797.35;;;15.79;48.40
82668;BME280;72691;51.374;-0.176;2023-10-09T05:25:50;101784.98;;;16.50;47.52
82668;BME280;72691;51.374;-0.176;2023-10-09T05:28:16;101792.52;;;14.62;50.29
82668;BME280;72691;51.374;-0.176;2023-10-09T05:30:41;101793.87;;;16.39;46.71
82668;BME280;72691;51.374;-0.176;2023-10-09T05:33:06;101798.35;;;17.05;46.41
82668;BME280;72691;51.374;-0.176;2023-10-09T05:35:32;101806.79;;;16.55;46.61
82668;BME280;72691;51.374;-0.176;2023-10-09T05:37:57;101811.99;;;16.91;45.60
82668;BME280;72691;51.374;-0.176;2023-10-09T05:40:22;101817.67;;;15.66;47.87
82668;BME280;72691;51.374;-0.176;2023-10-09T05:42:48;101821.83;;;16.45;46.07
82668;BME280;72691;51.374;-0.176;2023-10-09T05:45:15;101828.93;;;14.98;48.66
82668;BME280;72691;51.374;-0.176;2023-10-09T05:47:39;101829.24;;;16.17;47.31
82668;BME280;72691;51.374;-0.176;2023-10-09T05:50:05;101815.78;;;15.58;48.71
82668;BME280;72691;51.374;-0.176;2023-10-09T05:52:29;101837.89;;;16.78;45.60
82668;BME280;72691;51.374;-0.176;2023-10-09T05:54:54;101845.72;;;16.48;46.57
82668;BME280;72691;51.374;-0.176;2023-10-09T05:57:20;101839.03;;;14.82;49.82
82668;BME280;72691;51.374;-0.176;2023-10-09T05:59:45;101824.39;;;14.73;49.35
82668;BME280;72691;51.374;-0.176;2023-10-09T06:02:10;101826.55;;;16.17;46.89
82668;BME280;72691;51.374;-0.176;2023-10-09T06:04:35;101833.50;;;15.23;49.25
82668;BME280;72691;51.374;-0.176;2023-10-09T06:07:00;101819.36;;;15.65;48.04
82668;BME280;72691;51.374;-0.176;2023-10-09T06:09:26;101836.80;;;15.89;46.93
82668;BME280;72691;51.374;-0.176;2023-10-09T06:11:52;101838.72;;;15.16;48.67
82668;BME280;72691;51.374;-0.176;2023-10-09T06:14:17;101824.13;;;14.53;50.46
82668;BME280;72691;51.374;-0.176;2023-10-09T06:16:43;101801.62;;;15.68;47.86
82668;BME280;72691;51.374;-0.176;2023-10-09T06:19:08;101798.60;;;15.66;47.60
82668;BME280;72691;51.374;-0.176;2023-10-09T06:21:33;101818.70;;;16.41;45.93
82668;BME280;72691;51.374;-0.176;2023-10-09T06:23:58;101835.62;;;14.64;50.57
82668;BME280;72691;51.374;-0.176;2023-10-09T06:26:23;101831.82;;;15.46;48.46
82668;BME280;72691;51.374;-0.176;2023-10-09T06:28:49;101825.19;;;15.35;49.07
82668;BME280;72691;51.374;-0.176;2023-10-09T06:31:14;101848.92;;;14.62;51.12
82668;BME280;72691;51.374;-0.176;2023-10-09T06:33:40;101853.76;;;14.35;51.13
82668;BME280;72691;51.374;-0.176;2023-10-09T06:36:11;101841.73;;;14.70;50.46
82668;BME280;72691;51.374;-0.176;2023-10-09T06:38:30;101836.68;;;14.20;51.55
82668;BME280;72691;51.374;-0.176;2023-10-09T06:40:56;101837.52;;;13.73;52.98
82668;BME280;72691;51.374;-0.176;2023-10-09T06:43:22;101835.52;;;14.34;52.34
82668;BME280;72691;51.374;-0.176;2023-10-09T06:45:47;101849.98;;;14.25;52.50
82668;BME280;72691;51.374;-0.176;2023-10-09T06:48:12;101854.50;;;13.98;53.63
82668;BME280;72691;51.374;-0.176;2023-10-09T06:50:38;101840.79;;;13.49;55.14
82668;BME280;72691;51.374;-0.176;2023-10-09T06:53:03;101821.27;;;13.86;54.77
82668;BME280;72691;51.374;-0.176;2023-10-09T06:55:35;101831.21;;;14.09;52.77
82668;BME280;72691;51.374;-0.176;2023-10-09T06:57:54;101829.24;;;14.81;51.19
82668;BME280;72691;51.374;-0.176;2023-10-09T07:00:19;101838.84;;;14.84;50.88
82668;BME280;72691;51.374;-0.176;2023-10-09T07:02:45;101856.37;;;14.12;52.16
82668;BME280;72691;51.374;-0.176;2023-10-09T07:05:10;101866.47;;;14.73;51.13
82668;BME280;72691;51.374;-0.176;2023-10-09T07:07:36;101875.91;;;14.61;51.79
82668;BME280;72691;51.374;-0.176;2023-10-09T07:10:01;101872.75;;;15.11;51.59
82668;BME280;72691;51.374;-0.176;2023-10-09T07:12:26;101866.67;;;13.64;54.29
82668;BME280;72691;51.374;-0.176;2023-10-09T07:14:52;101878.82;;;13.58;54.91
82668;BME280;72691;51.374;-0.176;2023-10-09T07:17:18;101875.38;;;14.82;52.59
82668;BME280;72691;51.374;-0.176;2023-10-09T07:19:43;101863.76;;;14.27;53.63
82668;BME280;72691;51.374;-0.176;2023-10-09T07:22:08;101870.42;;;14.58;53.26
82668;BME280;72691;51.374;-0.176;2023-10-09T07:24:34;101866.97;;;15.15;52.43
82668;BME280;72691;51.374;-0.176;2023-10-09T07:26:59;101861.48;;;14.08;53.21
82668;BME280;72691;51.374;-0.176;2023-10-09T07:29:24;101857.97;;;13.71;55.05
82668;BME280;72691;51.374;-0.176;2023-10-09T07:31:52;101854.15;;;15.06;52.71
82668;BME280;72691;51.374;-0.176;2023-10-09T07:34:15;101849.84;;;15.42;52.11
82668;BME280;72691;51.374;-0.176;2023-10-09T07:36:40;101850.16;;;14.20;53.55
82668;BME280;72691;51.374;-0.176;2023-10-09T07:39:06;101846.84;;;15.27;51.95
82668;BME280;72691;51.374;-0.176;2023-10-09T07:41:32;101846.01;;;15.43;51.03
82668;BME280;72691;51.374;-0.176;2023-10-09T07:43:57;101850.91;;;14.83;52.40
82668;BME280;72691;51.374;-0.176;2023-10-09T07:46:22;101853.76;;;15.45;51.58
82668;BME280;72691;51.374;-0.176;2023-10-09T07:48:48;101857.74;;;13.39;56.10
82668;BME280;72691;51.374;-0.176;2023-10-09T07:51:13;101860.70;;;15.59;51.44
82668;BME280;72691;51.374;-0.176;2023-10-09T07:53:39;101873.77;;;14.45;53.53
82668;BME280;72691;51.374;-0.176;2023-10-09T07:56:04;101876.36;;;15.36;51.81
82668;BME280;72691;51.374;-0.176;2023-10-09T07:58:29;101875.96;;;14.89;52.76
82668;BME280;72691;51.374;-0.176;2023-10-09T08:00:56;101890.85;;;14.77;53.31
82668;BME280;72691;51.374;-0.176;2023-10-09T08:03:21;101888.22;;;15.31;51.78
82668;BME280;72691;51.374;-0.176;2023-10-09T08:05:46;101893.69;;;15.24;52.08
82668;BME280;72691;51.374;-0.176;2023-10-09T08:08:11;101884.62;;;14.83;52.59
82668;BME280;72691;51.374;-0.176;2023-10-09T08:10:39;101896.74;;;15.57;51.26
82668;BME280;72691;51.374;-0.176;2023-10-09T08:13:03;101901.60;;;15.65;51.57
82668;BME280;72691;51.374;-0.176;2023-10-09T08:15:29;101916.88;;;15.70;50.65
82668;BME280;72691;51.374;-0.176;2023-10-09T08:17:55;101920.63;;;15.33;52.17
82668;BME280;72691;51.374;-0.176;2023-10-09T08:20:21;101922.40;;;15.73;51.26
82668;BME280;72691;51.374;-0.176;2023-10-09T08:22:44;101919.82;;;16.12;50.22
82668;BME280;72691;51.374;-0.176;2023-10-09T08:25:10;101931.41;;;15.26;52.48
82668;BME280;72691;51.374;-0.176;2023-10-09T08:27:34;101937.56;;;15.75;51.19
82668;BME280;72691;51.374;-0.176;2023-10-09T08:30:01;101935.31;;;15.92;50.22
82668;BME280;72691;51.374;-0.176;2023-10-09T08:32:25;101929.02;;;16.24;50.03
82668;BME280;72691;51.374;-0.176;2023-10-09T08:34:50;101925.82;;;14.48;53.49
82668;BME280;72691;51.374;-0.176;2023-10-09T08:37:16;101929.56;;;15.95;51.59
82668;BME280;72691;51.374;-0.176;2023-10-09T08:39:40;101933.68;;;16.63;49.26
82668;BME280;72691;51.374;-0.176;2023-10-09T08:42:05;101928.36;;;15.69;51.36
82668;BME280;72691;51.374;-0.176;2023-10-09T08:44:31;101917.87;;;14.67;53.02
82668;BME280;72691;51.374;-0.176;2023-10-09T08:46:56;101901.76;;;14.32;54.28
82668;BME280;72691;51.374;-0.176;2023-10-09T08:49:21;101897.61;;;14.95;53.98
82668;BME280;72691;51.374;-0.176;2023-10-09T08:51:46;101899.86;;;14.99;53.71
82668;BME280;72691;51.374;-0.176;2023-10-09T08:54:12;101902.90;;;14.90;52.78
82668;BME280;72691;51.374;-0.176;2023-10-09T08:56:37;101907.57;;;15.47;51.82
82668;BME280;72691;51.374;-0.176;2023-10-09T08:59:02;101914.26;;;16.26;50.05
82668;BME280;72691;51.374;-0.176;2023-10-09T09:01:28;101939.26;;;14.26;54.51
82668;BME280;72691;51.374;-0.176;2023-10-09T09:03:54;101938.34;;;15.40;52.48
82668;BME280;72691;51.374;-0.176;2023-10-09T09:06:18;101924.45;;;15.45;52.87
82668;BME280;72691;51.374;-0.176;2023-10-09T09:08:44;101920.21;;;15.89;51.98
82668;BME280;72691;51.374;-0.176;2023-10-09T09:11:11;101909.09;;;15.94;51.38
82668;BME280;72691;51.374;-0.176;2023-10-09T09:13:34;101903.21;;;15.73;51.26
82668;BME280;72691;51.374;-0.176;2023-10-09T09:16:00;101906.00;;;15.75;51.59
82668;BME280;72691;51.374;-0.176;2023-10-09T09:18:25;101903.28;;;15.72;51.45
82668;BME280;72691;51.374;-0.176;2023-10-09T09:20:50;101897.58;;;15.84;51.38
82668;BME280;72691;51.374;-0.176;2023-10-09T09:23:15;101906.08;;;15.59;52.69
82668;BME280;72691;51.374;-0.176;2023-10-09T09:25:42;101919.83;;;16.26;50.97
82668;BME280;72691;51.374;-0.176;2023-10-09T09:28:05;101926.08;;;15.83;51.48
82668;BME280;72691;51.374;-0.176;2023-10-09T09:30:31;101921.88;;;15.16;53.15
82668;BME280;72691;51.374;-0.176;2023-10-09T09:32:56;101913.57;;;16.19;50.72
82668;BME280;72691;51.374;-0.176;2023-10-09T09:35:21;101903.43;;;16.63;49.74
82668;BME280;72691;51.374;-0.176;2023-10-09T09:37:52;101882.43;;;17.42;48.91
82668;BME280;72691;51.374;-0.176;2023-10-09T09:40:11;101888.29;;;17.57;48.89
82668;BME280;72691;51.374;-0.176;2023-10-09T09:42:38;101893.18;;;16.41;50.24
82668;BME280;72691;51.374;-0.176;2023-10-09T09:45:04;101911.34;;;16.59;50.19
82668;BME280;72691;51.374;-0.176;2023-10-09T09:47:29;101927.56;;;16.10;51.16
82668;BME280;72691;51.374;-0.176;2023-10-09T09:49:54;101920.78;;;17.70;49.11
82668;BME280;72691;51.374;-0.176;2023-10-09T09:52:18;101917.01;;;17.32;48.68
82668;BME280;72691;51.374;-0.176;2023-10-09T09:54:44;101911.69;;;16.47;50.45
82668;BME280;72691;51.374;-0.176;2023-10-09T09:57:09;101903.55;;;16.44;50.80
82668;BME280;72691;51.374;-0.176;2023-10-09T09:59:38;101906.95;;;17.07;49.05
82668;BME280;72691;51.374;-0.176;2023-10-09T10:02:00;101905.89;;;17.63;48.38
82668;BME280;72691;51.374;-0.176;2023-10-09T10:04:28;101927.86;;;16.62;50.30
82668;BME280;72691;51.374;-0.176;2023-10-09T10:06:51;101930.85;;;16.40;51.75
82668;BME280;72691;51.374;-0.176;2023-10-09T10:11:42;101921.09;;;16.89;50.28
82668;BME280;72691;51.374;-0.176;2023-10-09T10:14:06;101911.63;;;17.59;49.39
82668;BME280;72691;51.374;-0.176;2023-10-09T10:16:31;101904.12;;;17.77;48.63
82668;BME280;72691;51.374;-0.176;2023-10-09T10:18:58;101898.72;;;18.63;46.66
82668;BME280;72691;51.374;-0.176;2023-10-09T10:21:23;101899.72;;;19.14;45.04
82668;BME280;72691;51.374;-0.176;2023-10-09T10:23:47;101905.07;;;18.51;44.79
82668;BME280;72691;51.374;-0.176;2023-10-09T10:26:19;101901.36;;;18.68;44.97
82668;BME280;72691;51.374;-0.176;2023-10-09T10:28:38;101906.34;;;18.49;46.11
82668;BME280;72691;51.374;-0.176;2023-10-09T10:31:04;101923.29;;;19.16;46.24
82668;BME280;72691;51.374;-0.176;2023-10-09T10:35:54;101900.66;;;19.96;43.73
82668;BME280;72691;51.374;-0.176;2023-10-09T10:38:24;101878.55;;;19.21;45.48
82668;BME280;72691;51.374;-0.176;2023-10-09T10:40:45;101883.43;;;19.46;45.05
82668;BME280;72691;51.374;-0.176;2023-10-09T10:43:15;101894.18;;;18.89;45.37
82668;BME280;72691;51.374;-0.176;2023-10-09T10:45:36;101887.17;;;20.18;43.55
82668;BME280;72691;51.374;-0.176;2023-10-09T10:48:02;101886.44;;;20.45;42.72
82668;BME280;72691;51.374;-0.176;2023-10-09T10:50:26;101894.33;;;18.28;46.52
82668;BME280;72691;51.374;-0.176;2023-10-09T10:52:52;101892.93;;;19.65;44.48
82668;BME280;72691;51.374;-0.176;2023-10-09T10:55:18;101888.80;;;20.04;43.09
82668;BME280;72691;51.374;-0.176;2023-10-09T10:57:44;101882.96;;;19.66;43.23
82668;BME280;72691;51.374;-0.176;2023-10-09T11:00:11;101870.51;;;20.39;41.50
82668;BME280;72691;51.374;-0.176;2023-10-09T11:02:33;101865.99;;;19.34;44.53
82668;BME280;72691;51.374;-0.176;2023-10-09T11:04:59;101863.29;;;20.76;42.28
82668;BME280;72691;51.374;-0.176;2023-10-09T11:07:24;101869.99;;;20.40;43.37
82668;BME280;72691;51.374;-0.176;2023-10-09T11:09:51;101868.23;;;19.91;43.19
82668;BME280;72691;51.374;-0.176;2023-10-09T11:12:15;101860.62;;;19.08;43.85
82668;BME280;72691;51.374;-0.176;2023-10-09T11:14:45;101864.20;;;19.70;43.85
82668;BME280;72691;51.374;-0.176;2023-10-09T11:17:06;101857.83;;;21.16;42.19
82668;BME280;72691;51.374;-0.176;2023-10-09T11:19:31;101848.08;;;21.23;41.44
82668;BME280;72691;51.374;-0.176;2023-10-09T11:21:58;101845.04;;;21.56;39.48
82668;BME280;72691;51.374;-0.176;2023-10-09T11:24:22;101849.71;;;21.86;39.65
82668;BME280;72691;51.374;-0.176;2023-10-09T11:26:47;101855.01;;;20.75;40.37
82668;BME280;72691;51.374;-0.176;2023-10-09T11:29:13;101859.48;;;20.49;41.45
82668;BME280;72691;51.374;-0.176;2023-10-09T11:31:38;101860.22;;;22.41;38.87
82668;BME280;72691;51.374;-0.176;2023-10-09T11:34:03;101866.84;;;22.05;39.68
82668;BME280;72691;51.374;-0.176;2023-10-09T11:36:34;101863.49;;;21.69;39.00
82668;BME280;72691;51.374;-0.176;2023-10-09T11:38:54;101857.78;;;22.82;38.62
82668;BME280;72691;51.374;-0.176;2023-10-09T11:41:19;101854.88;;;23.17;37.16
82668;BME280;72691;51.374;-0.176;2023-10-09T11:43:46;101854.34;;;24.39;34.81
82668;BME280;72691;51.374;-0.176;2023-10-09T11:46:10;101850.69;;;24.22;35.22
82668;BME280;72691;51.374;-0.176;2023-10-09T11:48:36;101848.42;;;23.12;38.22
82668;BME280;72691;51.374;-0.176;2023-10-09T11:51:01;101846.63;;;25.29;34.30
82668;BME280;72691;51.374;-0.176;2023-10-09T11:53:26;101846.41;;;24.12;34.25
82668;BME280;72691;51.374;-0.176;2023-10-09T11:55:51;101835.68;;;25.93;32.70
82668;BME280;72691;51.374;-0.176;2023-10-09T11:58:17;101841.74;;;22.23;37.18
82668;BME280;72691;51.374;-0.176;2023-10-09T12:00:42;101837.65;;;24.84;34.25
82668;BME280;72691;51.374;-0.176;2023-10-09T12:03:07;101833.52;;;25.23;33.44
82668;BME280;72691;51.374;-0.176;2023-10-09T12:05:33;101830.60;;;25.92;32.03
82668;BME280;72691;51.374;-0.176;2023-10-09T12:07:58;101829.06;;;24.74;33.16
82668;BME280;72691;51.374;-0.176;2023-10-09T12:10:23;101826.10;;;25.27;33.65
82668;BME280;72691;51.374;-0.176;2023-10-09T12:12:49;101823.30;;;24.89;34.31
82668;BME280;72691;51.374;-0.176;2023-10-09T12:15:14;101822.43;;;22.56;36.98
82668;BME280;72691;51.374;-0.176;2023-10-09T12:17:39;101825.74;;;22.39;38.55
82668;BME280;72691;51.374;-0.176;2023-10-09T12:20:06;101823.64;;;23.78;37.10
82668;BME280;72691;51.374;-0.176;2023-10-09T12:22:30;101822.31;;;24.07;35.36
82668;BME280;72691;51.374;-0.176;2023-10-09T12:24:55;101822.42;;;23.08;36.63
82668;BME280;72691;51.374;-0.176;2023-10-09T12:27:21;101821.29;;;23.85;36.13
82668;BME280;72691;51.374;-0.176;2023-10-09T12:29:46;101813.54;;;25.44;34.19
82668;BME280;72691;51.374;-0.176;2023-10-09T12:32:11;101816.03;;;24.30;35.83
82668;BME280;72691;51.374;-0.176;2023-10-09T12:34:37;101811.25;;;23.93;36.23